sensor_id;sensor_type;location;lat;lon;timestamp;pressure;altitude;pressure_sealevel;temperature;humidity
30598;BME280;17365;48.878;8.334;2022-12-20T00:00:25;100620.91;;;3.35;100.00
30598;BME280;17365;48.878;8.334;2022-12-20T00:02:50;100600.53;;;3.17;100.00
30598;BME280;17365;48.878;8.334;2022-12-20T00:05:15;100589.31;;;3.13;100.00
30598;BME280;17365;48.878;8.334;2022-12-20T00:07:41;100584.38;;;3.18;100.00
30598;BME280;17365;48.878;8.334;2022-12-20T00:10:06;100590.09;;;3.33;100.00
30598;BME280;17365;48.878;8.334;2022-12-20T00:12:32;100584.66;;;3.26;100.00
30598;BME280;17365;48.878;8.334;2022-12-20T00:14:57;100587.25;;;3.05;100.00
30598;BME280;17365;48.878;8.334;2022-12-20T00:17:22;100576.31;;;3.09;100.00
30598;BME280;17365;48.878;8.334;2022-12-20T00:19:48;100571.88;;;3.05;100.00
30598;BME280;17365;48.878;8.334;2022-12-20T00:22:13;100556.97;;;2.95;100.00
30598;BME280;17365;48.878;8.334;2022-12-20T00:24:38;100559.81;;;3.02;100.00
30598;BME280;17365;48.878;8.334;2022-12-20T00:27:04;100565.81;;;3.03;100.00
30598;BME280;17365;48.878;8.334;2022-12-20T00:29:29;100570.44;;;3.34;100.00
30598;BME280;17365;48.878;8.334;2022-12-20T00:31:54;100574.41;;;3.26;100.00
30598;BME280;17365;48.878;8.334;2022-12-20T00:34:20;100576.50;;;3.36;100.00
30598;BME280;17365;48.878;8.334;2022-12-20T00:36:45;100573.13;;;3.37;100.00
30598;BME280;17365;48.878;8.334;2022-12-20T00:39:11;100582.19;;;3.51;100.00
30598;BME280;17365;48.878;8.334;2022-12-20T00:41:36;100570.00;;;3.44;100.00
30598;BME280;17365;48.878;8.334;2022-12-20T00:44:02;100573.88;;;3.34;100.00
30598;BME280;17365;48.878;8.334;2022-12-20T00:46:29;100584.16;;;3.34;100.00
30598;BME280;17365;48.878;8.334;2022-12-20T00:48:56;100585.81;;;3.11;100.00
30598;BME280;17365;48.878;8.334;2022-12-20T00:51:24;100587.88;;;3.42;100.00
30598;BME280;17365;48.878;8.334;2022-12-20T00:53:49;100591.59;;;3.50;100.00
30598;BME280;17365;48.878;8.334;2022-12-20T00:56:15;100587.88;;;3.20;100.00
30598;BME280;17365;48.878;8.334;2022-12-20T00:58:42;100575.97;;;3.00;100.00
30598;BME280;17365;48.878;8.334;2022-12-20T01:01:28;100564.97;;;3.25;100.00
30598;BME280;17365;48.878;8.334;2022-12-20T01:03:54;100566.66;;;3.46;100.00
30598;BME280;17365;48.878;8.334;2022-12-20T01:06:20;100557.06;;;3.41;100.00
30598;BME280;17365;48.878;8.334;2022-12-20T01:08:46;100557.38;;;3.50;100.00
30598;BME280;17365;48.878;8.334;2022-12-20T01:11:14;100559.19;;;3.53;100.00
30598;BME280;17365;48.878;8.334;2022-12-20T01:13:42;100548.34;;;3.60;100.00
30598;BME280;17365;48.878;8.334;2022-12-20T01:18:35;100552.66;;;3.16;100.00
30598;BME280;17365;48.878;8.334;2022-12-20T01:21:02;100556.47;;;3.26;100.00
30598;BME280;17365;48.878;8.334;2022-12-20T01:23:28;100567.31;;;3.18;100.00
30598;BME280;17365;48.878;8.334;2022-12-20T01:25:53;100567.38;;;3.42;100.00
30598;BME280;17365;48.878;8.334;2022-12-20T01:28:19;100572.53;;;3.21;100.00
30598;BME280;17365;48.878;8.334;2022-12-20T01:30:44;100572.91;;;3.31;100.00
30598;BME280;17365;48.878;8.334;2022-12-20T01:33:09;100559.31;;;3.33;100.00
30598;BME280;17365;48.878;8.334;2022-12-20T01:35:35;100556.44;;;3.03;100.00
30598;BME280;17365;48.878;8.334;2022-12-20T01:38:00;100554.75;;;3.26;100.00
30598;BME280;17365;48.878;8.334;2022-12-20T01:40:25;100546.16;;;3.24;100.00
30598;BME280;17365;48.878;8.334;2022-12-20T01:42:51;100537.22;;;3.37;100.00
30598;BME280;17365;48.878;8.334;2022-12-20T01:45:24;100535.28;;;3.30;100.00
30598;BME280;17365;48.878;8.334;2022-12-20T01:47:50;100540.56;;;3.12;100.00
30598;BME280;17365;48.878;8.334;2022-12-20T01:50:16;100541.53;;;2.93;100.00
30598;BME280;17365;48.878;8.334;2022-12-20T01:52:42;100540.91;;;2.99;100.00
30598;BME280;17365;48.878;8.334;2022-12-20T01:55:13;100528.56;;;2.68;100.00
30598;BME280;17365;48.878;8.334;2022-12-20T01:57:45;100530.19;;;2.86;100.00
30598;BME280;17365;48.878;8.334;2022-12-20T02:00:12;100536.19;;;3.09;100.00
30598;BME280;17365;48.878;8.334;2022-12-20T02:02:38;100538.09;;;3.15;100.00
30598;BME280;17365;48.878;8.334;2022-12-20T02:05:05;100541.78;;;2.78;100.00
30598;BME280;17365;48.878;8.334;2022-12-20T02:07:32;100539.84;;;3.16;100.00
30598;BME280;17365;48.878;8.334;2022-12-20T02:09:59;100544.88;;;3.13;100.00
30598;BME280;17365;48.878;8.334;2022-12-20T02:12:30;100543.22;;;3.15;100.00
30598;BME280;17365;48.878;8.334;2022-12-20T02:15:09;100540.03;;;3.20;100.00
30598;BME280;17365;48.878;8.334;2022-12-20T02:25:45;100524.34;;;3.13;100.00
30598;BME280;17365;48.878;8.334;2022-12-20T02:28:38;100508.72;;;2.41;100.00
30598;BME280;17365;48.878;8.334;2022-12-20T02:31:12;100501.03;;;2.41;100.00
30598;BME280;17365;48.878;8.334;2022-12-20T02:33:42;100499.50;;;2.67;100.00
30598;BME280;17365;48.878;8.334;2022-12-20T02:36:09;100485.34;;;2.98;100.00
30598;BME280;17365;48.878;8.334;2022-12-20T02:38:36;100486.00;;;3.16;100.00
30598;BME280;17365;48.878;8.334;2022-12-20T02:43:31;100487.91;;;3.20;100.00
30598;BME280;17365;48.878;8.334;2022-12-20T02:46:17;100502.19;;;3.37;100.00
30598;BME280;17365;48.878;8.334;2022-12-20T02:48:43;100489.66;;;3.45;100.00
30598;BME280;17365;48.878;8.334;2022-12-20T02:51:11;100495.44;;;3.39;100.00
30598;BME280;17365;48.878;8.334;2022-12-20T02:53:37;100500.78;;;3.45;100.00
30598;BME280;17365;48.878;8.334;2022-12-20T02:56:21;100496.72;;;3.28;100.00
30598;BME280;17365;48.878;8.334;2022-12-20T02:58:57;100505.63;;;3.38;100.00
30598;BME280;17365;48.878;8.334;2022-12-20T03:01:31;100511.44;;;2.67;100.00
30598;BME280;17365;48.878;8.334;2022-12-20T03:03:58;100509.78;;;3.12;100.00
30598;BME280;17365;48.878;8.334;2022-12-20T03:06:24;100512.81;;;3.24;100.00
30598;BME280;17365;48.878;8.334;2022-12-20T03:08:49;100510.56;;;3.09;100.00
30598;BME280;17365;48.878;8.334;2022-12-20T03:11:15;100512.66;;;3.19;100.00
30598;BME280;17365;48.878;8.334;2022-12-20T03:13:40;100503.78;;;3.11;100.00
30598;BME280;17365;48.878;8.334;2022-12-20T03:16:06;100501.69;;;3.24;100.00
30598;BME280;17365;48.878;8.334;2022-12-20T03:18:31;100498.97;;;2.97;100.00
30598;BME280;17365;48.878;8.334;2022-12-20T03:20:56;100495.34;;;3.14;100.00
30598;BME280;17365;48.878;8.334;2022-12-20T03:23:22;100496.06;;;3.10;100.00
30598;BME280;17365;48.878;8.334;2022-12-20T03:25:47;100495.66;;;2.99;100.00
30598;BME280;17365;48.878;8.334;2022-12-20T03:28:13;100487.03;;;3.19;100.00
30598;BME280;17365;48.878;8.334;2022-12-20T03:30:38;100484.03;;;3.31;100.00
30598;BME280;17365;48.878;8.334;2022-12-20T03:33:03;100474.38;;;3.24;100.00
30598;BME280;17365;48.878;8.334;2022-12-20T03:35:29;100487.94;;;3.21;100.00
30598;BME280;17365;48.878;8.334;2022-12-20T03:37:54;100488.25;;;3.29;100.00
30598;BME280;17365;48.878;8.334;2022-12-20T03:40:20;100480.41;;;3.26;100.00
30598;BME280;17365;48.878;8.334;2022-12-20T03:42:46;100474.06;;;3.16;100.00
30598;BME280;17365;48.878;8.334;2022-12-20T03:45:11;100478.97;;;3.33;100.00
30598;BME280;17365;48.878;8.334;2022-12-20T03:47:37;100473.66;;;3.28;100.00
30598;BME280;17365;48.878;8.334;2022-12-20T03:50:03;100472.91;;;3.31;100.00
30598;BME280;17365;48.878;8.334;2022-12-20T03:52:28;100474.28;;;3.45;100.00
30598;BME280;17365;48.878;8.334;2022-12-20T03:54:54;100476.75;;;3.42;100.00
30598;BME280;17365;48.878;8.334;2022-12-20T03:57:19;100467.59;;;3.50;100.00
30598;BME280;17365;48.878;8.334;2022-12-20T03:59:44;100463.59;;;3.33;100.00
30598;BME280;17365;48.878;8.334;2022-12-20T04:02:10;100459.22;;;3.30;100.00
30598;BME280;17365;48.878;8.334;2022-12-20T04:04:35;100468.88;;;3.37;100.00
30598;BME280;17365;48.878;8.334;2022-12-20T04:07:01;100463.41;;;3.06;100.00
30598;BME280;17365;48.878;8.334;2022-12-20T04:09:26;100465.75;;;3.22;100.00
30598;BME280;17365;48.878;8.334;2022-12-20T04:11:51;100468.72;;;3.33;100.00
30598;BME280;17365;48.878;8.334;2022-12-20T04:14:17;100454.28;;;3.36;100.00
30598;BME280;17365;48.878;8.334;2022-12-20T04:16:42;100453.00;;;3.47;100.00
30598;BME280;17365;48.878;8.334;2022-12-20T04:19:07;100454.53;;;3.42;100.00
30598;BME280;17365;48.878;8.334;2022-12-20T04:21:33;100441.44;;;3.35;100.00
30598;BME280;17365;48.878;8.334;2022-12-20T04:24:00;100446.25;;;3.27;100.00
30598;BME280;17365;48.878;8.334;2022-12-20T04:26:26;100443.31;;;3.16;100.00
30598;BME280;17365;48.878;8.334;2022-12-20T04:28:52;100442.53;;;3.41;100.00
30598;BME280;17365;48.878;8.334;2022-12-20T04:31:18;100443.22;;;3.37;100.00
30598;BME280;17365;48.878;8.334;2022-12-20T04:33:43;100440.91;;;3.43;100.00
30598;BME280;17365;48.878;8.334;2022-12-20T04:36:09;100442.91;;;3.52;100.00
30598;BME280;17365;48.878;8.334;2022-12-20T04:38:34;100432.38;;;3.20;100.00
30598;BME280;17365;48.878;8.334;2022-12-20T04:40:59;100430.63;;;3.43;100.00
30598;BME280;17365;48.878;8.334;2022-12-20T04:43:25;100433.78;;;2.90;100.00
30598;BME280;17365;48.878;8.334;2022-12-20T04:45:52;100424.00;;;3.26;100.00
30598;BME280;17365;48.878;8.334;2022-12-20T04:48:18;100426.47;;;3.23;100.00
30598;BME280;17365;48.878;8.334;2022-12-20T04:50:48;100429.66;;;3.40;100.00
30598;BME280;17365;48.878;8.334;2022-12-20T04:53:14;100430.69;;;3.45;100.00
30598;BME280;17365;48.878;8.334;2022-12-20T04:55:58;100416.44;;;3.53;100.00
30598;BME280;17365;48.878;8.334;2022-12-20T04:58:23;100419.22;;;3.59;100.00
30598;BME280;17365;48.878;8.334;2022-12-20T05:00:50;100423.63;;;3.15;100.00
30598;BME280;17365;48.878;8.334;2022-12-20T05:03:17;100423.63;;;3.39;100.00
30598;BME280;17365;48.878;8.334;2022-12-20T05:05:42;100437.75;;;3.04;100.00
30598;BME280;17365;48.878;8.334;2022-12-20T05:08:08;100431.41;;;3.41;100.00
30598;BME280;17365;48.878;8.334;2022-12-20T05:10:33;100425.06;;;3.31;100.00
30598;BME280;17365;48.878;8.334;2022-12-20T05:12:58;100425.66;;;3.48;100.00
30598;BME280;17365;48.878;8.334;2022-12-20T05:15:24;100429.66;;;3.64;100.00
30598;BME280;17365;48.878;8.334;2022-12-20T05:17:49;100426.84;;;3.58;100.00
30598;BME280;17365;48.878;8.334;2022-12-20T05:20:15;100425.38;;;3.64;100.00
30598;BME280;17365;48.878;8.334;2022-12-20T05:22:40;100409.31;;;3.70;100.00
30598;BME280;17365;48.878;8.334;2022-12-20T05:25:24;100403.81;;;6.58;97.04
30598;BME280;17365;48.878;8.334;2022-12-20T05:28:08;100391.97;;;7.50;84.91
30598;BME280;17365;48.878;8.334;2022-12-20T05:30:33;100393.03;;;7.62;81.64
30598;BME280;17365;48.878;8.334;2022-12-20T05:32:59;100401.72;;;7.67;81.89
30598;BME280;17365;48.878;8.334;2022-12-20T05:35:24;100406.25;;;7.80;79.89
30598;BME280;17365;48.878;8.334;2022-12-20T05:37:49;100411.03;;;8.05;77.35
30598;BME280;17365;48.878;8.334;2022-12-20T05:40:15;100410.72;;;8.38;74.41
30598;BME280;17365;48.878;8.334;2022-12-20T05:42:40;100423.72;;;8.44;73.33
30598;BME280;17365;48.878;8.334;2022-12-20T05:45:05;100422.41;;;8.18;72.46
30598;BME280;17365;48.878;8.334;2022-12-20T05:47:31;100417.25;;;8.18;73.25
30598;BME280;17365;48.878;8.334;2022-12-20T05:50:01;100416.78;;;7.92;77.12
30598;BME280;17365;48.878;8.334;2022-12-20T05:52:26;100419.53;;;8.00;74.89
30598;BME280;17365;48.878;8.334;2022-12-20T05:54:51;100419.34;;;7.91;75.64
30598;BME280;17365;48.878;8.334;2022-12-20T05:57:17;100418.34;;;6.93;83.19
30598;BME280;17365;48.878;8.334;2022-12-20T05:59:42;100426.09;;;6.20;86.88
30598;BME280;17365;48.878;8.334;2022-12-20T06:02:08;100427.47;;;5.42;91.59
30598;BME280;17365;48.878;8.334;2022-12-20T06:04:34;100425.44;;;5.31;92.56
30598;BME280;17365;48.878;8.334;2022-12-20T06:07:00;100419.81;;;4.84;96.42
30598;BME280;17365;48.878;8.334;2022-12-20T06:09:25;100421.75;;;4.64;97.36
30598;BME280;17365;48.878;8.334;2022-12-20T06:11:50;100415.38;;;4.51;99.58
30598;BME280;17365;48.878;8.334;2022-12-20T06:14:16;100419.06;;;4.59;100.00
30598;BME280;17365;48.878;8.334;2022-12-20T06:16:41;100399.13;;;4.52;100.00
30598;BME280;17365;48.878;8.334;2022-12-20T06:19:07;100405.84;;;4.47;100.00
30598;BME280;17365;48.878;8.334;2022-12-20T06:21:33;100399.97;;;4.51;99.73
30598;BME280;17365;48.878;8.334;2022-12-20T06:23:59;100396.13;;;4.10;100.00
30598;BME280;17365;48.878;8.334;2022-12-20T06:26:25;100395.00;;;4.29;100.00
30598;BME280;17365;48.878;8.334;2022-12-20T06:28:51;100396.81;;;4.06;100.00
30598;BME280;17365;48.878;8.334;2022-12-20T06:31:18;100401.72;;;3.98;100.00
30598;BME280;17365;48.878;8.334;2022-12-20T06:33:44;100409.72;;;4.07;100.00
30598;BME280;17365;48.878;8.334;2022-12-20T06:36:09;100410.47;;;4.30;100.00
30598;BME280;17365;48.878;8.334;2022-12-20T06:38:35;100406.38;;;4.37;100.00
30598;BME280;17365;48.878;8.334;2022-12-20T06:41:00;100403.63;;;4.31;100.00
30598;BME280;17365;48.878;8.334;2022-12-20T06:43:25;100400.78;;;4.22;100.00
30598;BME280;17365;48.878;8.334;2022-12-20T06:45:51;100400.59;;;4.17;100.00
30598;BME280;17365;48.878;8.334;2022-12-20T06:48:16;100396.88;;;4.07;100.00
30598;BME280;17365;48.878;8.334;2022-12-20T06:50:41;100391.56;;;4.01;100.00
30598;BME280;17365;48.878;8.334;2022-12-20T06:53:07;100391.75;;;4.07;100.00
30598;BME280;17365;48.878;8.334;2022-12-20T06:55:32;100389.72;;;4.24;100.00
30598;BME280;17365;48.878;8.334;2022-12-20T06:57:57;100395.06;;;4.30;100.00
30598;BME280;17365;48.878;8.334;2022-12-20T07:00:23;100388.28;;;4.32;100.00
30598;BME280;17365;48.878;8.334;2022-12-20T07:02:48;100385.16;;;4.43;100.00
30598;BME280;17365;48.878;8.334;2022-12-20T07:05:13;100371.75;;;4.24;100.00
30598;BME280;17365;48.878;8.334;2022-12-20T07:07:39;100372.22;;;4.13;100.00
30598;BME280;17365;48.878;8.334;2022-12-20T07:10:05;100362.47;;;4.29;100.00
30598;BME280;17365;48.878;8.334;2022-12-20T07:12:31;100371.66;;;4.21;100.00
30598;BME280;17365;48.878;8.334;2022-12-20T07:14:57;100359.31;;;3.84;100.00
30598;BME280;17365;48.878;8.334;2022-12-20T07:17:23;100363.03;;;4.19;100.00
30598;BME280;17365;48.878;8.334;2022-12-20T07:19:48;100357.09;;;4.20;100.00
30598;BME280;17365;48.878;8.334;2022-12-20T07:22:13;100350.59;;;4.31;100.00
30598;BME280;17365;48.878;8.334;2022-12-20T07:24:39;100348.28;;;4.41;100.00
30598;BME280;17365;48.878;8.334;2022-12-20T07:27:04;100347.28;;;4.35;100.00
30598;BME280;17365;48.878;8.334;2022-12-20T07:29:29;100356.50;;;4.02;100.00
30598;BME280;17365;48.878;8.334;2022-12-20T07:31:55;100368.97;;;3.91;100.00
30598;BME280;17365;48.878;8.334;2022-12-20T07:34:20;100362.78;;;4.12;100.00
30598;BME280;17365;48.878;8.334;2022-12-20T07:36:46;100363.03;;;3.92;100.00
30598;BME280;17365;48.878;8.334;2022-12-20T07:39:11;100364.13;;;4.27;100.00
30598;BME280;17365;48.878;8.334;2022-12-20T07:41:36;100365.38;;;4.40;100.00
30598;BME280;17365;48.878;8.334;2022-12-20T07:44:02;100355.94;;;4.39;100.00
30598;BME280;17365;48.878;8.334;2022-12-20T07:46:28;100354.59;;;4.23;100.00
30598;BME280;17365;48.878;8.334;2022-12-20T07:48:53;100360.00;;;4.05;100.00
30598;BME280;17365;48.878;8.334;2022-12-20T07:51:30;100352.13;;;4.26;100.00
30598;BME280;17365;48.878;8.334;2022-12-20T07:54:05;100345.13;;;4.49;100.00
30598;BME280;17365;48.878;8.334;2022-12-20T07:56:35;100332.47;;;4.55;100.00
30598;BME280;17365;48.878;8.334;2022-12-20T07:59:02;100331.91;;;4.65;100.00
30598;BME280;17365;48.878;8.334;2022-12-20T08:01:29;100329.66;;;4.76;100.00
30598;BME280;17365;48.878;8.334;2022-12-20T08:03:59;100338.06;;;4.42;100.00
30598;BME280;17365;48.878;8.334;2022-12-20T08:06:27;100342.59;;;4.51;100.00
30598;BME280;17365;48.878;8.334;2022-12-20T08:08:56;100346.34;;;4.62;100.00
30598;BME280;17365;48.878;8.334;2022-12-20T08:11:23;100355.59;;;4.55;100.00
30598;BME280;17365;48.878;8.334;2022-12-20T08:13:49;100351.47;;;4.62;100.00
30598;BME280;17365;48.878;8.334;2022-12-20T08:16:15;100359.03;;;4.56;100.00
30598;BME280;17365;48.878;8.334;2022-12-20T08:18:40;100347.72;;;4.51;100.00
30598;BME280;17365;48.878;8.334;2022-12-20T08:21:06;100348.31;;;4.71;100.00
30598;BME280;17365;48.878;8.334;2022-12-20T08:23:31;100343.19;;;4.71;100.00
30598;BME280;17365;48.878;8.334;2022-12-20T08:25:59;100346.78;;;4.76;100.00
30598;BME280;17365;48.878;8.334;2022-12-20T08:28:25;100355.59;;;4.85;100.00
30598;BME280;17365;48.878;8.334;2022-12-20T08:30:50;100346.03;;;4.80;100.00
30598;BME280;17365;48.878;8.334;2022-12-20T08:33:15;100330.03;;;4.90;100.00
30598;BME280;17365;48.878;8.334;2022-12-20T08:35:41;100316.56;;;4.68;100.00
30598;BME280;17365;48.878;8.334;2022-12-20T08:38:06;100311.47;;;4.70;100.00
30598;BME280;17365;48.878;8.334;2022-12-20T08:40:31;100313.81;;;4.32;100.00
30598;BME280;17365;48.878;8.334;2022-12-20T08:42:57;100306.03;;;4.59;100.00
30598;BME280;17365;48.878;8.334;2022-12-20T08:45:22;100306.72;;;4.84;100.00
30598;BME280;17365;48.878;8.334;2022-12-20T08:47:48;100302.59;;;4.89;100.00
30598;BME280;17365;48.878;8.334;2022-12-20T08:50:13;100304.59;;;4.99;100.00
30598;BME280;17365;48.878;8.334;2022-12-20T08:52:38;100292.25;;;5.19;100.00
30598;BME280;17365;48.878;8.334;2022-12-20T08:55:04;100296.16;;;5.05;100.00
30598;BME280;17365;48.878;8.334;2022-12-20T08:57:30;100305.44;;;4.68;100.00
30598;BME280;17365;48.878;8.334;2022-12-20T08:59:56;100299.22;;;4.91;100.00
30598;BME280;17365;48.878;8.334;2022-12-20T09:02:21;100294.28;;;4.67;100.00
30598;BME280;17365;48.878;8.334;2022-12-20T09:04:46;100307.53;;;4.83;100.00
30598;BME280;17365;48.878;8.334;2022-12-20T09:07:11;100298.03;;;5.10;100.00
30598;BME280;17365;48.878;8.334;2022-12-20T09:09:37;100299.53;;;5.02;100.00
30598;BME280;17365;48.878;8.334;2022-12-20T09:12:03;100309.13;;;5.09;100.00
30598;BME280;17365;48.878;8.334;2022-12-20T09:14:28;100318.88;;;5.21;100.00
30598;BME280;17365;48.878;8.334;2022-12-20T09:16:53;100317.59;;;5.05;100.00
30598;BME280;17365;48.878;8.334;2022-12-20T09:19:19;100332.38;;;5.12;100.00
30598;BME280;17365;48.878;8.334;2022-12-20T09:21:44;100329.06;;;5.18;100.00
30598;BME280;17365;48.878;8.334;2022-12-20T09:24:09;100331.75;;;5.21;100.00
30598;BME280;17365;48.878;8.334;2022-12-20T09:26:34;100328.50;;;5.28;100.00
30598;BME280;17365;48.878;8.334;2022-12-20T09:29:00;100325.28;;;5.37;100.00
30598;BME280;17365;48.878;8.334;2022-12-20T09:31:26;100328.94;;;5.45;100.00
30598;BME280;17365;48.878;8.334;2022-12-20T09:33:56;100319.41;;;5.42;100.00
30598;BME280;17365;48.878;8.334;2022-12-20T09:36:22;100323.94;;;5.51;100.00
30598;BME280;17365;48.878;8.334;2022-12-20T09:38:48;100320.94;;;5.34;100.00
30598;BME280;17365;48.878;8.334;2022-12-20T09:41:39;100317.03;;;5.48;100.00
30598;BME280;17365;48.878;8.334;2022-12-20T09:44:25;100322.38;;;5.56;100.00
30598;BME280;17365;48.878;8.334;2022-12-20T09:46:54;100325.00;;;5.59;100.00
30598;BME280;17365;48.878;8.334;2022-12-20T09:49:24;100326.53;;;5.52;100.00
30598;BME280;17365;48.878;8.334;2022-12-20T10:00:18;100315.41;;;5.88;100.00
30598;BME280;17365;48.878;8.334;2022-12-20T10:02:45;100305.91;;;5.85;100.00
30598;BME280;17365;48.878;8.334;2022-12-20T10:05:16;100300.13;;;5.93;100.00
30598;BME280;17365;48.878;8.334;2022-12-20T10:08:04;100299.31;;;5.95;100.00
30598;BME280;17365;48.878;8.334;2022-12-20T10:11:08;100294.13;;;5.94;100.00
30598;BME280;17365;48.878;8.334;2022-12-20T10:13:39;100289.47;;;6.15;100.00
30598;BME280;17365;48.878;8.334;2022-12-20T10:16:39;100286.16;;;6.21;100.00
30598;BME280;17365;48.878;8.334;2022-12-20T10:21:57;100286.06;;;6.16;100.00
30598;BME280;17365;48.878;8.334;2022-12-20T10:24:32;100293.91;;;6.22;100.00
30598;BME280;17365;48.878;8.334;2022-12-20T10:27:11;100295.22;;;6.42;100.00
30598;BME280;17365;48.878;8.334;2022-12-20T10:29:38;100283.16;;;6.40;100.00
30598;BME280;17365;48.878;8.334;2022-12-20T10:32:13;100284.91;;;6.42;100.00
30598;BME280;17365;48.878;8.334;2022-12-20T10:34:45;100281.00;;;6.60;100.00
30598;BME280;17365;48.878;8.334;2022-12-20T10:37:14;100273.47;;;6.70;99.99
30598;BME280;17365;48.878;8.334;2022-12-20T10:39:50;100262.88;;;6.57;100.00
30598;BME280;17365;48.878;8.334;2022-12-20T10:42:25;100262.31;;;6.70;100.00
30598;BME280;17365;48.878;8.334;2022-12-20T10:44:52;100252.19;;;6.81;99.71
30598;BME280;17365;48.878;8.334;2022-12-20T10:50:07;100240.06;;;6.77;99.50
30598;BME280;17365;48.878;8.334;2022-12-20T10:52:32;100236.50;;;6.68;99.91
30598;BME280;17365;48.878;8.334;2022-12-20T10:54:58;100238.19;;;6.68;99.58
30598;BME280;17365;48.878;8.334;2022-12-20T10:57:25;100234.72;;;6.67;99.60
30598;BME280;17365;48.878;8.334;2022-12-20T10:59:54;100238.78;;;6.55;100.00
30598;BME280;17365;48.878;8.334;2022-12-20T11:02:35;100231.13;;;6.58;100.00
30598;BME280;17365;48.878;8.334;2022-12-20T11:05:23;100218.09;;;6.52;100.00
30598;BME280;17365;48.878;8.334;2022-12-20T11:10:22;100212.13;;;6.53;100.00
30598;BME280;17365;48.878;8.334;2022-12-20T11:12:56;100190.75;;;6.58;100.00
30598;BME280;17365;48.878;8.334;2022-12-20T11:15:25;100178.16;;;6.74;100.00
30598;BME280;17365;48.878;8.334;2022-12-20T11:20:37;100162.09;;;6.43;100.00
30598;BME280;17365;48.878;8.334;2022-12-20T11:23:37;100170.25;;;6.66;100.00
30598;BME280;17365;48.878;8.334;2022-12-20T11:36:43;100198.13;;;6.85;100.00
30598;BME280;17365;48.878;8.334;2022-12-20T11:39:31;100204.84;;;6.77;99.61
30598;BME280;17365;48.878;8.334;2022-12-20T11:42:19;100196.78;;;7.07;98.97
30598;BME280;17365;48.878;8.334;2022-12-20T11:56:11;100160.03;;;7.20;97.48
30598;BME280;17365;48.878;8.334;2022-12-20T11:58:45;100159.09;;;7.14;97.55
30598;BME280;17365;48.878;8.334;2022-12-20T12:01:15;100150.34;;;7.06;97.66
30598;BME280;17365;48.878;8.334;2022-12-20T12:04:06;100161.50;;;7.05;98.17
30598;BME280;17365;48.878;8.334;2022-12-20T12:06:37;100149.00;;;7.29;97.63
30598;BME280;17365;48.878;8.334;2022-12-20T12:09:11;100149.91;;;7.33;97.50
30598;BME280;17365;48.878;8.334;2022-12-20T12:11:40;100150.06;;;7.42;97.31
30598;BME280;17365;48.878;8.334;2022-12-20T12:14:17;100150.91;;;7.42;97.13
30598;BME280;17365;48.878;8.334;2022-12-20T12:16:49;100143.34;;;7.53;96.42
30598;BME280;17365;48.878;8.334;2022-12-20T12:19:16;100146.81;;;7.55;96.56
30598;BME280;17365;48.878;8.334;2022-12-20T12:21:46;100139.06;;;7.56;96.33
30598;BME280;17365;48.878;8.334;2022-12-20T12:24:18;100131.16;;;7.44;96.30
30598;BME280;17365;48.878;8.334;2022-12-20T12:26:45;100112.25;;;7.45;96.33
30598;BME280;17365;48.878;8.334;2022-12-20T12:29:12;100097.56;;;7.41;97.17
30598;BME280;17365;48.878;8.334;2022-12-20T12:31:39;100088.97;;;7.41;97.06
30598;BME280;17365;48.878;8.334;2022-12-20T12:45:50;100085.47;;;7.37;98.04
30598;BME280;17365;48.878;8.334;2022-12-20T12:48:24;100089.81;;;6.84;99.72
30598;BME280;17365;48.878;8.334;2022-12-20T12:50:55;100087.47;;;6.99;100.00
30598;BME280;17365;48.878;8.334;2022-12-20T12:53:36;100094.50;;;7.08;99.19
30598;BME280;17365;48.878;8.334;2022-12-20T12:56:44;100097.28;;;7.23;98.97
30598;BME280;17365;48.878;8.334;2022-12-20T13:04:58;100077.19;;;7.59;97.13
30598;BME280;17365;48.878;8.334;2022-12-20T13:17:58;100041.84;;;7.57;96.57
30598;BME280;17365;48.878;8.334;2022-12-20T13:20:29;100032.47;;;7.62;97.04
30598;BME280;17365;48.878;8.334;2022-12-20T13:23:04;100022.88;;;7.53;96.59
30598;BME280;17365;48.878;8.334;2022-12-20T13:25:40;100032.31;;;7.50;97.61
30598;BME280;17365;48.878;8.334;2022-12-20T13:30:44;100015.84;;;7.42;98.84
30598;BME280;17365;48.878;8.334;2022-12-20T13:33:37;100026.72;;;7.18;99.13
30598;BME280;17365;48.878;8.334;2022-12-20T13:36:35;100040.16;;;6.97;100.00
30598;BME280;17365;48.878;8.334;2022-12-20T13:39:28;100047.16;;;7.04;100.00
30598;BME280;17365;48.878;8.334;2022-12-20T13:42:12;100053.53;;;7.29;99.73
30598;BME280;17365;48.878;8.334;2022-12-20T13:44:44;100043.34;;;7.38;99.28
30598;BME280;17365;48.878;8.334;2022-12-20T13:49:50;100043.53;;;7.52;98.12
30598;BME280;17365;48.878;8.334;2022-12-20T13:52:27;100033.34;;;7.63;97.99
30598;BME280;17365;48.878;8.334;2022-12-20T13:54:57;100025.69;;;7.72;97.49
30598;BME280;17365;48.878;8.334;2022-12-20T13:57:40;100020.41;;;7.63;97.73
30598;BME280;17365;48.878;8.334;2022-12-20T14:00:14;100019.69;;;7.71;97.27
30598;BME280;17365;48.878;8.334;2022-12-20T14:02:41;100020.69;;;7.84;96.90
30598;BME280;17365;48.878;8.334;2022-12-20T14:05:18;100024.09;;;7.81;97.09
30598;BME280;17365;48.878;8.334;2022-12-20T14:07:54;100025.88;;;7.88;96.83
30598;BME280;17365;48.878;8.334;2022-12-20T14:10:25;100023.28;;;7.85;96.79
30598;BME280;17365;48.878;8.334;2022-12-20T14:12:51;100007.63;;;7.72;97.49
30598;BME280;17365;48.878;8.334;2022-12-20T14:15:29;100014.44;;;7.67;98.09
30598;BME280;17365;48.878;8.334;2022-12-20T14:17:54;100018.81;;;7.72;98.20
30598;BME280;17365;48.878;8.334;2022-12-20T14:20:28;100011.09;;;7.75;98.33
30598;BME280;17365;48.878;8.334;2022-12-20T14:23:26;100004.97;;;7.67;98.28
30598;BME280;17365;48.878;8.334;2022-12-20T14:25:56;100001.63;;;7.73;98.84
30598;BME280;17365;48.878;8.334;2022-12-20T14:28:34;100005.94;;;7.75;98.78